sensor_id;sensor_type;location;lat;lon;timestamp;P1;durP1;ratioP1;P2;durP2;ratioP2
70675;SDS011;59069;52.242;20.900;2022-12-18T00:02:10;30.03;;;10.37;;
70675;SDS011;59069;52.242;20.900;2022-12-18T00:04:35;27.90;;;10.40;;
70675;SDS011;59069;52.242;20.900;2022-12-18T00:07:00;24.40;;;9.63;;
70675;SDS011;59069;52.242;20.900;2022-12-18T00:09:26;29.30;;;10.43;;
70675;SDS011;59069;52.242;20.900;2022-12-18T00:11:51;28.33;;;9.93;;
70675;SDS011;59069;52.242;20.900;2022-12-18T00:14:17;29.50;;;9.67;;
70675;SDS011;59069;52.242;20.900;2022-12-18T00:16:45;23.63;;;8.77;;
70675;SDS011;59069;52.242;20.900;2022-12-18T00:19:11;29.27;;;10.80;;
70675;SDS011;59069;52.242;20.900;2022-12-18T00:21:37;27.63;;;10.45;;
70675;SDS011;59069;52.242;20.900;2022-12-18T00:24:02;29.70;;;10.67;;
70675;SDS011;59069;52.242;20.900;2022-12-18T00:26:29;28.80;;;9.82;;
70675;SDS011;59069;52.242;20.900;2022-12-18T00:29:01;27.33;;;8.88;;
70675;SDS011;59069;52.242;20.900;2022-12-18T00:31:29;28.73;;;10.63;;
70675;SDS011;59069;52.242;20.900;2022-12-18T00:33:55;26.43;;;9.40;;
70675;SDS011;59069;52.242;20.900;2022-12-18T00:36:26;26.67;;;9.73;;
70675;SDS011;59069;52.242;20.900;2022-12-18T00:38:54;33.22;;;11.05;;
70675;SDS011;59069;52.242;20.900;2022-12-18T00:41:21;29.23;;;10.63;;
70675;SDS011;59069;52.242;20.900;2022-12-18T00:44:05;26.02;;;8.98;;
70675;SDS011;59069;52.242;20.900;2022-12-18T00:46:32;26.17;;;9.90;;
70675;SDS011;59069;52.242;20.900;2022-12-18T00:48:57;28.83;;;9.82;;
70675;SDS011;59069;52.242;20.900;2022-12-18T00:51:23;26.17;;;8.63;;
70675;SDS011;59069;52.242;20.900;2022-12-18T00:53:51;26.65;;;8.93;;
70675;SDS011;59069;52.242;20.900;2022-12-18T00:56:17;27.85;;;9.60;;
70675;SDS011;59069;52.242;20.900;2022-12-18T00:58:43;28.77;;;10.10;;
70675;SDS011;59069;52.242;20.900;2022-12-18T01:01:08;28.35;;;9.88;;
70675;SDS011;59069;52.242;20.900;2022-12-18T01:03:34;26.87;;;9.40;;
70675;SDS011;59069;52.242;20.900;2022-12-18T01:06:04;27.37;;;9.23;;
70675;SDS011;59069;52.242;20.900;2022-12-18T01:08:33;29.85;;;10.10;;
70675;SDS011;59069;52.242;20.900;2022-12-18T01:11:00;28.45;;;10.68;;
70675;SDS011;59069;52.242;20.900;2022-12-18T01:13:26;26.83;;;9.07;;
70675;SDS011;59069;52.242;20.900;2022-12-18T01:15:52;26.70;;;9.43;;
70675;SDS011;59069;52.242;20.900;2022-12-18T01:18:17;27.42;;;10.15;;
70675;SDS011;59069;52.242;20.900;2022-12-18T01:20:43;33.73;;;9.93;;
70675;SDS011;59069;52.242;20.900;2022-12-18T01:23:08;29.60;;;9.25;;
70675;SDS011;59069;52.242;20.900;2022-12-18T01:25:37;29.17;;;9.77;;
70675;SDS011;59069;52.242;20.900;2022-12-18T01:28:03;26.85;;;10.00;;
70675;SDS011;59069;52.242;20.900;2022-12-18T01:30:28;26.00;;;8.17;;
70675;SDS011;59069;52.242;20.900;2022-12-18T01:32:54;27.57;;;9.20;;
70675;SDS011;59069;52.242;20.900;2022-12-18T04:23:03;28.77;;;8.30;;
70675;SDS011;59069;52.242;20.900;2022-12-18T04:25:29;31.57;;;8.93;;
70675;SDS011;59069;52.242;20.900;2022-12-18T04:27:54;29.53;;;10.60;;
70675;SDS011;59069;52.242;20.900;2022-12-18T04:30:19;31.30;;;10.38;;
70675;SDS011;59069;52.242;20.900;2022-12-18T04:32:45;32.87;;;10.23;;
70675;SDS011;59069;52.242;20.900;2022-12-18T04:35:10;28.13;;;9.70;;
70675;SDS011;59069;52.242;20.900;2022-12-18T04:37:36;34.17;;;10.52;;
70675;SDS011;59069;52.242;20.900;2022-12-18T04:40:02;28.43;;;10.13;;
70675;SDS011;59069;52.242;20.900;2022-12-18T04:42:29;31.60;;;10.63;;
70675;SDS011;59069;52.242;20.900;2022-12-18T04:44:55;29.77;;;9.40;;
70675;SDS011;59069;52.242;20.900;2022-12-18T04:47:20;28.63;;;10.23;;
70675;SDS011;59069;52.242;20.900;2022-12-18T04:49:46;26.87;;;8.77;;
70675;SDS011;59069;52.242;20.900;2022-12-18T04:52:11;25.10;;;8.70;;
70675;SDS011;59069;52.242;20.900;2022-12-18T04:54:37;31.35;;;9.90;;
70675;SDS011;59069;52.242;20.900;2022-12-18T04:57:02;24.93;;;8.10;;
70675;SDS011;59069;52.242;20.900;2022-12-18T04:59:28;27.17;;;9.03;;
70675;SDS011;59069;52.242;20.900;2022-12-18T05:01:53;24.50;;;8.90;;
70675;SDS011;59069;52.242;20.900;2022-12-18T05:04:19;31.30;;;9.50;;
70675;SDS011;59069;52.242;20.900;2022-12-18T05:06:44;30.17;;;9.60;;
70675;SDS011;59069;52.242;20.900;2022-12-18T05:09:10;26.87;;;8.67;;
70675;SDS011;59069;52.242;20.900;2022-12-18T05:11:35;32.77;;;10.03;;
70675;SDS011;59069;52.242;20.900;2022-12-18T05:14:01;32.20;;;10.30;;
70675;SDS011;59069;52.242;20.900;2022-12-18T05:16:26;33.42;;;10.35;;
70675;SDS011;59069;52.242;20.900;2022-12-18T05:18:52;32.93;;;9.63;;
70675;SDS011;59069;52.242;20.900;2022-12-18T05:21:17;33.53;;;10.17;;
70675;SDS011;59069;52.242;20.900;2022-12-18T05:23:43;34.15;;;9.90;;
70675;SDS011;59069;52.242;20.900;2022-12-18T05:26:08;31.43;;;10.37;;
70675;SDS011;59069;52.242;20.900;2022-12-18T05:28:39;35.13;;;11.32;;
70675;SDS011;59069;52.242;20.900;2022-12-18T05:31:05;31.80;;;10.20;;
70675;SDS011;59069;52.242;20.900;2022-12-18T05:33:31;29.90;;;9.47;;
70675;SDS011;59069;52.242;20.900;2022-12-18T05:35:59;31.05;;;9.05;;
70675;SDS011;59069;52.242;20.900;2022-12-18T05:38:26;30.85;;;10.18;;
70675;SDS011;59069;52.242;20.900;2022-12-18T05:40:53;37.88;;;10.40;;
70675;SDS011;59069;52.242;20.900;2022-12-18T05:43:19;37.40;;;10.27;;
70675;SDS011;59069;52.242;20.900;2022-12-18T05:45:47;35.07;;;12.13;;
70675;SDS011;59069;52.242;20.900;2022-12-18T05:48:13;33.33;;;10.90;;
70675;SDS011;59069;52.242;20.900;2022-12-18T05:50:39;34.03;;;11.00;;
70675;SDS011;59069;52.242;20.900;2022-12-18T05:53:06;36.33;;;10.10;;
70675;SDS011;59069;52.242;20.900;2022-12-18T05:55:33;32.38;;;11.02;;
70675;SDS011;59069;52.242;20.900;2022-12-18T05:58:00;35.00;;;11.20;;
70675;SDS011;59069;52.242;20.900;2022-12-18T06:00:26;35.25;;;11.38;;
70675;SDS011;59069;52.242;20.900;2022-12-18T06:02:52;33.40;;;10.53;;
70675;SDS011;59069;52.242;20.900;2022-12-18T06:05:17;34.27;;;10.77;;
70675;SDS011;59069;52.242;20.900;2022-12-18T06:07:43;38.78;;;12.13;;
70675;SDS011;59069;52.242;20.900;2022-12-18T06:10:08;36.37;;;11.60;;
70675;SDS011;59069;52.242;20.900;2022-12-18T06:12:34;41.33;;;12.63;;
70675;SDS011;59069;52.242;20.900;2022-12-18T06:15:00;36.55;;;10.70;;
70675;SDS011;59069;52.242;20.900;2022-12-18T06:17:32;43.50;;;11.37;;
70675;SDS011;59069;52.242;20.900;2022-12-18T06:19:58;34.72;;;11.10;;
70675;SDS011;59069;52.242;20.900;2022-12-18T06:22:23;36.58;;;11.65;;
70675;SDS011;59069;52.242;20.900;2022-12-18T06:24:49;39.53;;;11.37;;
70675;SDS011;59069;52.242;20.900;2022-12-18T06:27:15;33.25;;;10.60;;
70675;SDS011;59069;52.242;20.900;2022-12-18T06:29:40;34.63;;;11.87;;
70675;SDS011;59069;52.242;20.900;2022-12-18T06:32:06;38.28;;;10.77;;
70675;SDS011;59069;52.242;20.900;2022-12-18T06:34:31;35.47;;;11.47;;
70675;SDS011;59069;52.242;20.900;2022-12-18T06:36:57;35.40;;;11.48;;
70675;SDS011;59069;52.242;20.900;2022-12-18T06:39:23;36.90;;;12.07;;
70675;SDS011;59069;52.242;20.900;2022-12-18T06:41:48;35.87;;;11.07;;
70675;SDS011;59069;52.242;20.900;2022-12-18T06:44:14;37.47;;;11.23;;
70675;SDS011;59069;52.242;20.900;2022-12-18T06:46:39;32.63;;;10.53;;
70675;SDS011;59069;52.242;20.900;2022-12-18T06:49:05;37.30;;;11.57;;
70675;SDS011;59069;52.242;20.900;2022-12-18T06:51:30;33.43;;;12.20;;
70675;SDS011;59069;52.242;20.900;2022-12-18T06:53:56;34.13;;;10.80;;
70675;SDS011;59069;52.242;20.900;2022-12-18T06:56:21;36.80;;;11.17;;
70675;SDS011;59069;52.242;20.900;2022-12-18T06:58:47;34.70;;;12.03;;
70675;SDS011;59069;52.242;20.900;2022-12-18T07:01:12;38.25;;;12.13;;
70675;SDS011;59069;52.242;20.900;2022-12-18T07:03:39;38.00;;;12.37;;
70675;SDS011;59069;52.242;20.900;2022-12-18T07:06:05;38.63;;;12.80;;
70675;SDS011;59069;52.242;20.900;2022-12-18T07:08:31;38.38;;;13.43;;
70675;SDS011;59069;52.242;20.900;2022-12-18T07:10:57;40.13;;;11.70;;
70675;SDS011;59069;52.242;20.900;2022-12-18T07:13:22;40.75;;;10.95;;
70675;SDS011;59069;52.242;20.900;2022-12-18T07:15:48;41.63;;;12.27;;
70675;SDS011;59069;52.242;20.900;2022-12-18T07:18:13;43.00;;;13.63;;
70675;SDS011;59069;52.242;20.900;2022-12-18T07:20:39;40.67;;;12.57;;
70675;SDS011;59069;52.242;20.900;2022-12-18T07:23:04;38.07;;;11.53;;
70675;SDS011;59069;52.242;20.900;2022-12-18T07:25:36;38.17;;;10.80;;
70675;SDS011;59069;52.242;20.900;2022-12-18T07:28:02;37.00;;;13.03;;
70675;SDS011;59069;52.242;20.900;2022-12-18T07:30:28;35.60;;;11.55;;
70675;SDS011;59069;52.242;20.900;2022-12-18T07:32:54;38.27;;;11.40;;
70675;SDS011;59069;52.242;20.900;2022-12-18T07:35:19;39.05;;;11.50;;
70675;SDS011;59069;52.242;20.900;2022-12-18T07:37:45;37.03;;;11.77;;
70675;SDS011;59069;52.242;20.900;2022-12-18T07:40:10;38.73;;;11.80;;
70675;SDS011;59069;52.242;20.900;2022-12-18T07:42:36;36.13;;;11.52;;
70675;SDS011;59069;52.242;20.900;2022-12-18T07:45:02;34.27;;;10.10;;
70675;SDS011;59069;52.242;20.900;2022-12-18T07:47:33;39.15;;;12.40;;
70675;SDS011;59069;52.242;20.900;2022-12-18T07:50:01;38.63;;;11.43;;
70675;SDS011;59069;52.242;20.900;2022-12-18T07:52:27;31.88;;;10.70;;
70675;SDS011;59069;52.242;20.900;2022-12-18T07:54:52;30.77;;;10.50;;
70675;SDS011;59069;52.242;20.900;2022-12-18T07:57:18;36.77;;;11.97;;
70675;SDS011;59069;52.242;20.900;2022-12-18T07:59:43;36.70;;;11.60;;
70675;SDS011;59069;52.242;20.900;2022-12-18T08:02:09;35.03;;;11.20;;
70675;SDS011;59069;52.242;20.900;2022-12-18T08:04:34;34.47;;;10.77;;
70675;SDS011;59069;52.242;20.900;2022-12-18T08:07:00;32.50;;;11.40;;
70675;SDS011;59069;52.242;20.900;2022-12-18T08:09:25;39.90;;;14.13;;
70675;SDS011;59069;52.242;20.900;2022-12-18T08:11:50;36.53;;;10.43;;
70675;SDS011;59069;52.242;20.900;2022-12-18T08:14:16;37.67;;;11.33;;
70675;SDS011;59069;52.242;20.900;2022-12-18T08:16:41;33.17;;;10.83;;
70675;SDS011;59069;52.242;20.900;2022-12-18T08:19:07;36.00;;;10.90;;
70675;SDS011;59069;52.242;20.900;2022-12-18T08:21:32;34.13;;;11.00;;
70675;SDS011;59069;52.242;20.900;2022-12-18T08:23:59;37.13;;;11.13;;
70675;SDS011;59069;52.242;20.900;2022-12-18T08:26:26;36.00;;;11.50;;
70675;SDS011;59069;52.242;20.900;2022-12-18T08:28:57;38.03;;;11.88;;
70675;SDS011;59069;52.242;20.900;2022-12-18T08:31:24;36.70;;;12.45;;
70675;SDS011;59069;52.242;20.900;2022-12-18T08:33:51;38.23;;;10.73;;
70675;SDS011;59069;52.242;20.900;2022-12-18T08:36:17;38.28;;;11.18;;
70675;SDS011;59069;52.242;20.900;2022-12-18T08:38:44;41.13;;;12.82;;
70675;SDS011;59069;52.242;20.900;2022-12-18T08:41:11;38.07;;;11.90;;
70675;SDS011;59069;52.242;20.900;2022-12-18T08:43:38;40.22;;;11.00;;
70675;SDS011;59069;52.242;20.900;2022-12-18T08:46:23;36.75;;;12.02;;
70675;SDS011;59069;52.242;20.900;2022-12-18T08:48:52;38.55;;;11.20;;
70675;SDS011;59069;52.242;20.900;2022-12-18T08:51:19;34.10;;;11.60;;
70675;SDS011;59069;52.242;20.900;2022-12-18T08:53:45;44.63;;;13.07;;
70675;SDS011;59069;52.242;20.900;2022-12-18T08:56:11;32.92;;;11.35;;
70675;SDS011;59069;52.242;20.900;2022-12-18T08:58:38;34.05;;;11.48;;
70675;SDS011;59069;52.242;20.900;2022-12-18T09:01:04;39.13;;;12.33;;
70675;SDS011;59069;52.242;20.900;2022-12-18T09:03:31;34.55;;;11.82;;
70675;SDS011;59069;52.242;20.900;2022-12-18T09:05:57;38.67;;;12.43;;
70675;SDS011;59069;52.242;20.900;2022-12-18T09:08:23;36.77;;;11.10;;
70675;SDS011;59069;52.242;20.900;2022-12-18T09:10:49;36.40;;;11.90;;
70675;SDS011;59069;52.242;20.900;2022-12-18T09:13:15;34.90;;;12.20;;
70675;SDS011;59069;52.242;20.900;2022-12-18T09:15:42;33.83;;;12.93;;
70675;SDS011;59069;52.242;20.900;2022-12-18T09:18:08;39.92;;;12.00;;
70675;SDS011;59069;52.242;20.900;2022-12-18T09:20:35;36.95;;;12.75;;
70675;SDS011;59069;52.242;20.900;2022-12-18T09:23:01;39.70;;;12.37;;
70675;SDS011;59069;52.242;20.900;2022-12-18T09:25:28;35.00;;;12.50;;
70675;SDS011;59069;52.242;20.900;2022-12-18T09:27:58;43.70;;;13.35;;
70675;SDS011;59069;52.242;20.900;2022-12-18T09:30:27;41.25;;;13.88;;
70675;SDS011;59069;52.242;20.900;2022-12-18T09:32:52;36.47;;;14.27;;
70675;SDS011;59069;52.242;20.900;2022-12-18T09:35:18;37.08;;;12.88;;
70675;SDS011;59069;52.242;20.900;2022-12-18T09:37:43;46.30;;;15.17;;
70675;SDS011;59069;52.242;20.900;2022-12-18T09:40:16;40.20;;;13.10;;
70675;SDS011;59069;52.242;20.900;2022-12-18T09:42:45;42.70;;;13.80;;
70675;SDS011;59069;52.242;20.900;2022-12-18T09:45:15;37.58;;;13.98;;
70675;SDS011;59069;52.242;20.900;2022-12-18T09:47:42;39.27;;;13.63;;
70675;SDS011;59069;52.242;20.900;2022-12-18T09:50:20;41.88;;;15.13;;
70675;SDS011;59069;52.242;20.900;2022-12-18T09:52:53;41.70;;;13.93;;
70675;SDS011;59069;52.242;20.900;2022-12-18T09:55:25;39.13;;;14.45;;
70675;SDS011;59069;52.242;20.900;2022-12-18T09:57:57;41.28;;;14.13;;
70675;SDS011;59069;52.242;20.900;2022-12-18T10:00:31;38.20;;;13.67;;
70675;SDS011;59069;52.242;20.900;2022-12-18T10:02:59;46.88;;;14.52;;
70675;SDS011;59069;52.242;20.900;2022-12-18T10:13:24;39.08;;;13.50;;
70675;SDS011;59069;52.242;20.900;2022-12-18T10:21:16;48.20;;;15.53;;
70675;SDS011;59069;52.242;20.900;2022-12-18T10:23:59;45.28;;;14.15;;
70675;SDS011;59069;52.242;20.900;2022-12-18T10:26:38;36.97;;;13.07;;
70675;SDS011;59069;52.242;20.900;2022-12-18T10:29:12;46.58;;;14.23;;
70675;SDS011;59069;52.242;20.900;2022-12-18T10:31:38;47.33;;;16.38;;
70675;SDS011;59069;52.242;20.900;2022-12-18T10:34:04;46.03;;;16.07;;
70675;SDS011;59069;52.242;20.900;2022-12-18T10:36:29;47.28;;;15.50;;
70675;SDS011;59069;52.242;20.900;2022-12-18T10:39:06;44.77;;;14.70;;
70675;SDS011;59069;52.242;20.900;2022-12-18T10:41:43;51.35;;;15.50;;
70675;SDS011;59069;52.242;20.900;2022-12-18T10:44:11;48.85;;;15.55;;
70675;SDS011;59069;52.242;20.900;2022-12-18T10:46:40;46.03;;;15.30;;
70675;SDS011;59069;52.242;20.900;2022-12-18T10:49:07;49.65;;;15.13;;
70675;SDS011;59069;52.242;20.900;2022-12-18T10:51:47;47.35;;;15.23;;
70675;SDS011;59069;52.242;20.900;2022-12-18T10:54:14;51.40;;;15.10;;
70675;SDS011;59069;52.242;20.900;2022-12-18T10:56:43;47.75;;;15.23;;
70675;SDS011;59069;52.242;20.900;2022-12-18T10:59:10;52.75;;;15.82;;
70675;SDS011;59069;52.242;20.900;2022-12-18T11:01:56;54.17;;;15.57;;
70675;SDS011;59069;52.242;20.900;2022-12-18T11:06:56;45.57;;;14.97;;
70675;SDS011;59069;52.242;20.900;2022-12-18T11:09:33;51.10;;;15.90;;
70675;SDS011;59069;52.242;20.900;2022-12-18T11:12:15;55.47;;;15.15;;
70675;SDS011;59069;52.242;20.900;2022-12-18T11:14:43;50.05;;;16.17;;
70675;SDS011;59069;52.242;20.900;2022-12-18T11:17:19;49.78;;;16.60;;
70675;SDS011;59069;52.242;20.900;2022-12-18T11:19:57;48.90;;;14.80;;
70675;SDS011;59069;52.242;20.900;2022-12-18T11:27:25;46.88;;;14.55;;
70675;SDS011;59069;52.242;20.900;2022-12-18T11:29:52;48.17;;;16.40;;
70675;SDS011;59069;52.242;20.900;2022-12-18T11:32:24;55.13;;;17.07;;
70675;SDS011;59069;52.242;20.900;2022-12-18T11:34:57;49.50;;;17.00;;
70675;SDS011;59069;52.242;20.900;2022-12-18T11:37:26;42.95;;;15.50;;
70675;SDS011;59069;52.242;20.900;2022-12-18T11:45:02;42.70;;;13.75;;
70675;SDS011;59069;52.242;20.900;2022-12-18T11:50:13;48.80;;;15.07;;
70675;SDS011;59069;52.242;20.900;2022-12-18T11:52:44;45.13;;;13.27;;
70675;SDS011;59069;52.242;20.900;2022-12-18T11:55:11;46.97;;;13.48;;
70675;SDS011;59069;52.242;20.900;2022-12-18T12:00:23;42.30;;;14.40;;
70675;SDS011;59069;52.242;20.900;2022-12-18T12:16:33;43.95;;;15.10;;
70675;SDS011;59069;52.242;20.900;2022-12-18T12:22:13;47.10;;;14.57;;
70675;SDS011;59069;52.242;20.900;2022-12-18T12:33:37;50.45;;;14.73;;
70675;SDS011;59069;52.242;20.900;2022-12-18T12:38:33;45.33;;;14.63;;
70675;SDS011;59069;52.242;20.900;2022-12-18T12:41:12;47.65;;;14.95;;
70675;SDS011;59069;52.242;20.900;2022-12-18T12:44:01;41.20;;;13.93;;
70675;SDS011;59069;52.242;20.900;2022-12-18T12:46:29;44.10;;;13.87;;
70675;SDS011;59069;52.242;20.900;2022-12-18T12:49:00;48.80;;;14.60;;
70675;SDS011;59069;52.242;20.900;2022-12-18T12:51:30;40.63;;;13.73;;
70675;SDS011;59069;52.242;20.900;2022-12-18T12:53:59;39.95;;;13.40;;
70675;SDS011;59069;52.242;20.900;2022-12-18T12:56:32;42.88;;;14.20;;
70675;SDS011;59069;52.242;20.900;2022-12-18T13:05:04;39.60;;;13.85;;
70675;SDS011;59069;52.242;20.900;2022-12-18T13:07:39;48.85;;;13.95;;
70675;SDS011;59069;52.242;20.900;2022-12-18T13:15:30;50.17;;;14.50;;
70675;SDS011;59069;52.242;20.900;2022-12-18T13:20:36;42.10;;;14.32;;
70675;SDS011;59069;52.242;20.900;2022-12-18T13:30:58;43.47;;;13.98;;
70675;SDS011;59069;52.242;20.900;2022-12-18T13:36:03;44.90;;;13.45;;
70675;SDS011;59069;52.242;20.900;2022-12-18T13:38:37;42.67;;;14.17;;
70675;SDS011;59069;52.242;20.900;2022-12-18T13:41:04;50.35;;;14.13;;
70675;SDS011;59069;52.242;20.900;2022-12-18T13:43:49;45.95;;;14.45;;
70675;SDS011;59069;52.242;20.900;2022-12-18T13:46:23;42.80;;;15.18;;
70675;SDS011;59069;52.242;20.900;2022-12-18T13:49:00;46.33;;;14.40;;
70675;SDS011;59069;52.242;20.900;2022-12-18T13:51:35;42.83;;;13.00;;
70675;SDS011;59069;52.242;20.900;2022-12-18T13:56:53;44.08;;;13.10;;
70675;SDS011;59069;52.242;20.900;2022-12-18T13:59:21;43.75;;;13.50;;
70675;SDS011;59069;52.242;20.900;2022-12-18T14:01:52;47.83;;;14.33;;
70675;SDS011;59069;52.242;20.900;2022-12-18T14:04:28;44.65;;;14.00;;
70675;SDS011;59069;52.242;20.900;2022-12-18T14:09:58;38.65;;;11.60;;
70675;SDS011;59069;52.242;20.900;2022-12-18T14:12:30;44.30;;;13.85;;
70675;SDS011;59069;52.242;20.900;2022-12-18T14:17:53;43.10;;;13.85;;
70675;SDS011;59069;52.242;20.900;2022-12-18T14:20:25;41.10;;;12.73;;
70675;SDS011;59069;52.242;20.900;2022-12-18T14:22:52;40.45;;;12.82;;
70675;SDS011;59069;52.242;20.900;2022-12-18T14:30:32;40.65;;;13.15;;
70675;SDS011;59069;52.242;20.900;2022-12-18T14:35:33;40.13;;;13.38;;
70675;SDS011;59069;52.242;20.900;2022-12-18T14:40:42;46.87;;;13.57;;
70675;SDS011;59069;52.242;20.900;2022-12-18T14:43:10;51.42;;;14.73;;
70675;SDS011;59069;52.242;20.900;2022-12-18T14:45:37;53.05;;;14.38;;
70675;SDS011;59069;52.242;20.900;2022-12-18T14:48:16;42.67;;;13.63;;
70675;SDS011;59069;52.242;20.900;2022-12-18T14:50:57;42.58;;;13.40;;
70675;SDS011;59069;52.242;20.900;2022-12-18T14:53:38;38.97;;;13.87;;
70675;SDS011;59069;52.242;20.900;2022-12-18T14:56:26;41.55;;;13.38;;
70675;SDS011;59069;52.242;20.900;2022-12-18T14:58:55;44.97;;;13.95;;
70675;SDS011;59069;52.242;20.900;2022-12-18T15:01:24;42.45;;;13.88;;
70675;SDS011;59069;52.242;20.900;2022-12-18T15:03:53;43.80;;;14.88;;
70675;SDS011;59069;52.242;20.900;2022-12-18T15:08:57;46.22;;;13.70;;
70675;SDS011;59069;52.242;20.900;2022-12-18T15:11:35;45.05;;;15.38;;
70675;SDS011;59069;52.242;20.900;2022-12-18T15:17:21;49.00;;;14.80;;
70675;SDS011;59069;52.242;20.900;2022-12-18T15:19:49;46.53;;;15.57;;
70675;SDS011;59069;52.242;20.900;2022-12-18T15:24:47;55.50;;;17.45;;
70675;SDS011;59069;52.242;20.900;2022-12-18T15:27:27;51.40;;;16.83;;
70675;SDS011;59069;52.242;20.900;2022-12-18T15:32:40;54.93;;;17.17;;
70675;SDS011;59069;52.242;20.900;2022-12-18T15:37:46;46.45;;;14.40;;
70675;SDS011;59069;52.242;20.900;2022-12-18T15:40:16;50.28;;;15.63;;
70675;SDS011;59069;52.242;20.900;2022-12-18T15:42:46;40.53;;;15.00;;
70675;SDS011;59069;52.242;20.900;2022-12-18T15:45:31;49.92;;;16.63;;
70675;SDS011;59069;52.242;20.900;2022-12-18T15:47:57;47.45;;;15.90;;
70675;SDS011;59069;52.242;20.900;2022-12-18T15:50:23;44.80;;;15.97;;
70675;SDS011;59069;52.242;20.900;2022-12-18T15:52:49;48.67;;;15.73;;
70675;SDS011;59069;52.242;20.900;2022-12-18T15:55:18;49.07;;;15.20;;
70675;SDS011;59069;52.242;20.900;2022-12-18T15:58:05;43.10;;;15.30;;
70675;SDS011;59069;52.242;20.900;2022-12-18T16:00:32;48.33;;;16.40;;
70675;SDS011;59069;52.242;20.900;2022-12-18T16:02:59;48.50;;;15.27;;
70675;SDS011;59069;52.242;20.900;2022-12-18T16:05:26;56.90;;;17.23;;
70675;SDS011;59069;52.242;20.900;2022-12-18T16:07:52;45.33;;;14.43;;
70675;SDS011;59069;52.242;20.900;2022-12-18T16:10:18;46.05;;;14.75;;
70675;SDS011;59069;52.242;20.900;2022-12-18T16:12:44;45.33;;;15.38;;
70675;SDS011;59069;52.242;20.900;2022-12-18T16:15:12;51.20;;;15.03;;
70675;SDS011;59069;52.242;20.900;2022-12-18T16:17:39;49.60;;;15.00;;
70675;SDS011;59069;52.242;20.900;2022-12-18T16:20:05;44.53;;;15.25;;
70675;SDS011;59069;52.242;20.900;2022-12-18T16:22:36;38.22;;;13.07;;
70675;SDS011;59069;52.242;20.900;2022-12-18T16:25:02;38.07;;;13.73;;
70675;SDS011;59069;52.242;20.900;2022-12-18T16:27:28;44.35;;;14.25;;
70675;SDS011;59069;52.242;20.900;2022-12-18T16:29:53;38.33;;;12.10;;
70675;SDS011;59069;52.242;20.900;2022-12-18T16:32:20;37.47;;;13.23;;
70675;SDS011;59069;52.242;20.900;2022-12-18T16:34:46;40.03;;;13.23;;
70675;SDS011;59069;52.242;20.900;2022-12-18T16:37:13;38.70;;;14.07;;
70675;SDS011;59069;52.242;20.900;2022-12-18T16:39:39;43.85;;;14.40;;
70675;SDS011;59069;52.242;20.900;2022-12-18T16:42:08;40.00;;;13.23;;
70675;SDS011;59069;52.242;20.900;2022-12-18T16:44:39;41.15;;;13.95;;
70675;SDS011;59069;52.242;20.900;2022-12-18T16:47:05;44.20;;;14.05;;
70675;SDS011;59069;52.242;20.900;2022-12-18T16:49:30;41.00;;;13.90;;
70675;SDS011;59069;52.242;20.900;2022-12-18T16:51:56;43.20;;;13.23;;
70675;SDS011;59069;52.242;20.900;2022-12-18T16:54:22;44.17;;;13.70;;
70675;SDS011;59069;52.242;20.900;2022-12-18T16:56:47;46.30;;;14.57;;
70675;SDS011;59069;52.242;20.900;2022-12-18T16:59:14;39.23;;;13.67;;
70675;SDS011;59069;52.242;20.900;2022-12-18T17:01:40;41.63;;;13.80;;
70675;SDS011;59069;52.242;20.900;2022-12-18T17:04:08;40.17;;;14.00;;
70675;SDS011;59069;52.242;20.900;2022-12-18T17:06:35;45.33;;;14.43;;
70675;SDS011;59069;52.242;20.900;2022-12-18T17:09:05;43.58;;;14.65;;
70675;SDS011;59069;52.242;20.900;2022-12-18T17:11:33;47.28;;;15.45;;
70675;SDS011;59069;52.242;20.900;2022-12-18T17:14:10;42.45;;;15.15;;
70675;SDS011;59069;52.242;20.900;2022-12-18T17:16:38;41.90;;;13.98;;
70675;SDS011;59069;52.242;20.900;2022-12-18T17:19:03;39.23;;;12.73;;
70675;SDS011;59069;52.242;20.900;2022-12-18T17:21:29;39.10;;;12.83;;
70675;SDS011;59069;52.242;20.900;2022-12-18T17:23:54;40.30;;;11.93;;
70675;SDS011;59069;52.242;20.900;2022-12-18T17:26:23;36.10;;;11.38;;
70675;SDS011;59069;52.242;20.900;2022-12-18T17:28:48;36.27;;;11.77;;
70675;SDS011;59069;52.242;20.900;2022-12-18T17:31:16;36.80;;;11.77;;
70675;SDS011;59069;52.242;20.900;2022-12-18T17:33:43;42.88;;;13.65;;
70675;SDS011;59069;52.242;20.900;2022-12-18T17:36:09;38.23;;;11.87;;
70675;SDS011;59069;52.242;20.900;2022-12-18T17:38:35;64.43;;;22.92;;
70675;SDS011;59069;52.242;20.900;2022-12-18T17:41:02;44.30;;;13.13;;
70675;SDS011;59069;52.242;20.900;2022-12-18T17:43:28;40.45;;;13.57;;
70675;SDS011;59069;52.242;20.900;2022-12-18T17:45:54;45.72;;;13.23;;
70675;SDS011;59069;52.242;20.900;2022-12-18T17:48:19;44.27;;;13.20;;
70675;SDS011;59069;52.242;20.900;2022-12-18T17:50:45;37.37;;;12.13;;
70675;SDS011;59069;52.242;20.900;2022-12-18T17:53:10;40.20;;;13.30;;
70675;SDS011;59069;52.242;20.900;2022-12-18T17:55:36;42.25;;;13.60;;
70675;SDS011;59069;52.242;20.900;2022-12-18T17:58:01;34.87;;;13.50;;
70675;SDS011;59069;52.242;20.900;2022-12-18T18:00:27;37.47;;;12.23;;
70675;SDS011;59069;52.242;20.900;2022-12-18T18:02:53;42.20;;;13.10;;
70675;SDS011;59069;52.242;20.900;2022-12-18T18:05:18;38.55;;;12.10;;
70675;SDS011;59069;52.242;20.900;2022-12-18T18:07:44;35.80;;;11.97;;
70675;SDS011;59069;52.242;20.900;2022-12-18T18:10:09;41.13;;;13.60;;
70675;SDS011;59069;52.242;20.900;2022-12-18T18:12:35;39.55;;;13.98;;
70675;SDS011;59069;52.242;20.900;2022-12-18T18:15:19;43.37;;;13.73;;
70675;SDS011;59069;52.242;20.900;2022-12-18T18:17:45;42.78;;;14.70;;
70675;SDS011;59069;52.242;20.900;2022-12-18T18:20:11;37.13;;;13.47;;
70675;SDS011;59069;52.242;20.900;2022-12-18T18:22:36;32.67;;;11.67;;
70675;SDS011;59069;52.242;20.900;2022-12-18T18:25:02;41.57;;;12.03;;
70675;SDS011;59069;52.242;20.900;2022-12-18T18:27:27;33.00;;;11.20;;
70675;SDS011;59069;52.242;20.900;2022-12-18T18:29:55;37.85;;;11.77;;
70675;SDS011;59069;52.242;20.900;2022-12-18T18:32:20;32.33;;;11.33;;
70675;SDS011;59069;52.242;20.900;2022-12-18T18:34:46;35.03;;;11.77;;
70675;SDS011;59069;52.242;20.900;2022-12-18T18:37:11;44.60;;;14.63;;
70675;SDS011;59069;52.242;20.900;2022-12-18T18:39:37;41.17;;;11.80;;
70675;SDS011;59069;52.242;20.900;2022-12-18T18:42:02;43.10;;;13.10;;
70675;SDS011;59069;52.242;20.900;2022-12-18T18:44:28;40.35;;;13.20;;
70675;SDS011;59069;52.242;20.900;2022-12-18T18:46:54;49.60;;;13.03;;
70675;SDS011;59069;52.242;20.900;2022-12-18T18:49:21;46.03;;;14.95;;
70675;SDS011;59069;52.242;20.900;2022-12-18T18:51:49;42.03;;;13.73;;
70675;SDS011;59069;52.242;20.900;2022-12-18T18:54:14;40.40;;;12.50;;
70675;SDS011;59069;52.242;20.900;2022-12-18T18:56:40;41.40;;;13.02;;
70675;SDS011;59069;52.242;20.900;2022-12-18T18:59:05;38.77;;;12.80;;
70675;SDS011;59069;52.242;20.900;2022-12-18T19:01:31;50.00;;;13.20;;